createdAt,value
2019-01-26T00:00:58.424Z,100380.34
2019-01-26T00:03:27.324Z,100381.08
2019-01-26T00:05:56.222Z,100395.98
2019-01-26T00:08:25.125Z,100391.35
2019-01-26T00:10:54.015Z,100396.60
2019-01-26T00:13:22.922Z,100388.41
2019-01-26T00:15:51.793Z,100386.69
2019-01-26T00:18:20.710Z,100394.17
2019-01-26T00:20:49.585Z,100384.38
2019-01-26T00:23:18.470Z,100387.18
2019-01-26T00:25:47.367Z,100393.55
2019-01-26T00:28:16.259Z,100390.00
2019-01-26T00:30:45.178Z,100397.94
2019-01-26T00:33:14.048Z,100391.95
2019-01-26T00:35:42.953Z,100385.85
2019-01-26T00:38:11.838Z,100380.35
2019-01-26T00:40:40.747Z,100393.79
2019-01-26T00:43:09.619Z,100382.19
2019-01-26T00:45:38.533Z,100370.55
2019-01-26T00:48:07.440Z,100371.91
2019-01-26T00:50:36.327Z,100364.42
2019-01-26T00:53:05.205Z,100357.57
2019-01-26T00:55:34.109Z,100358.06
2019-01-26T00:58:02.984Z,100357.94
2019-01-26T01:00:31.876Z,100354.14
2019-01-26T01:03:00.762Z,100357.45
2019-01-26T01:05:29.665Z,100355.86
2019-01-26T01:07:58.527Z,100346.92
2019-01-26T01:10:27.455Z,100347.30
2019-01-26T01:12:56.328Z,100346.08
2019-01-26T01:15:25.212Z,100342.90
2019-01-26T01:17:54.098Z,100340.33
2019-01-26T01:20:22.988Z,100335.19
2019-01-26T01:22:51.894Z,100328.47
2019-01-26T01:25:20.770Z,100322.72
2019-01-26T01:27:49.659Z,100325.89
2019-01-26T01:30:19.872Z,100335.68
2019-01-26T01:32:48.753Z,100333.08
2019-01-26T01:35:17.747Z,100326.84
2019-01-26T01:37:46.643Z,100324.52
2019-01-26T01:40:15.584Z,100322.08
2019-01-26T01:42:44.444Z,100325.50
2019-01-26T01:45:15.745Z,100332.36
2019-01-26T01:47:44.746Z,100329.05
2019-01-26T01:50:13.707Z,100341.81
2019-01-26T01:52:42.667Z,100343.80
2019-01-26T01:55:11.530Z,100340.98
2019-01-26T01:57:40.426Z,100336.95
2019-01-26T02:00:13.192Z,100326.42
2019-01-26T02:02:42.094Z,100335.11
2019-01-26T02:05:10.962Z,100324.83
2019-01-26T02:07:39.869Z,100327.89
2019-01-26T02:10:09.935Z,100322.91
2019-01-26T02:12:38.877Z,100326.82
2019-01-26T02:15:08.621Z,100325.99
2019-01-26T02:17:37.516Z,100317.41
2019-01-26T02:20:07.906Z,100318.34
2019-01-26T02:22:36.819Z,100317.00
2019-01-26T02:25:05.726Z,100321.60
2019-01-26T02:27:34.616Z,100316.91
2019-01-26T02:30:03.561Z,100318.95
2019-01-26T02:32:32.406Z,100327.94
2019-01-26T02:35:01.294Z,100326.19
2019-01-26T02:37:30.200Z,100329.12
2019-01-26T02:39:59.087Z,100321.48
2019-01-26T02:42:27.982Z,100327.45
2019-01-26T02:44:56.871Z,100321.08
2019-01-26T02:47:25.794Z,100319.94
2019-01-26T02:49:54.704Z,100313.85
2019-01-26T02:52:23.590Z,100302.63
2019-01-26T02:54:52.496Z,100298.69
2019-01-26T02:57:21.388Z,100296.67
2019-01-26T02:59:50.269Z,100313.08
2019-01-26T03:02:19.229Z,100306.92
2019-01-26T03:04:48.052Z,100302.56
2019-01-26T03:07:16.942Z,100293.14
2019-01-26T03:09:45.808Z,100294.16
2019-01-26T03:12:14.703Z,100298.38
2019-01-26T03:14:43.574Z,100285.23
2019-01-26T03:17:12.461Z,100277.64
2019-01-26T03:19:41.335Z,100279.66
2019-01-26T03:22:10.224Z,100277.70
2019-01-26T03:24:39.115Z,100277.94
2019-01-26T03:27:08.049Z,100278.59
2019-01-26T03:29:36.939Z,100263.13
2019-01-26T03:32:05.827Z,100268.80
2019-01-26T03:34:34.728Z,100263.38
2019-01-26T03:37:03.622Z,100274.24
2019-01-26T03:39:32.519Z,100282.14
2019-01-26T03:42:01.416Z,100287.66
2019-01-26T03:44:30.316Z,100277.70
2019-01-26T03:46:59.223Z,100275.38
2019-01-26T03:49:28.124Z,100269.62
2019-01-26T03:51:57.011Z,100274.02
2019-01-26T03:54:25.914Z,100268.64
2019-01-26T03:56:54.790Z,100271.08
2019-01-26T03:59:23.683Z,100277.83
2019-01-26T04:01:52.586Z,100285.91
2019-01-26T04:04:21.465Z,100280.63
2019-01-26T04:06:50.365Z,100275.13
2019-01-26T04:09:19.245Z,100273.64
2019-01-26T04:11:48.143Z,100260.19
2019-01-26T04:14:18.808Z,100266.07
2019-01-26T04:16:45.938Z,100254.23
2019-01-26T04:19:14.821Z,100251.54
2019-01-26T04:21:43.724Z,100245.78
2019-01-26T04:24:12.598Z,100242.31
2019-01-26T04:26:41.496Z,100236.56
2019-01-26T04:29:11.465Z,100235.07
2019-01-26T04:31:39.315Z,100232.89
2019-01-26T04:34:08.205Z,100228.23
2019-01-26T04:36:37.131Z,100226.31
2019-01-26T04:39:08.171Z,100227.74
2019-01-26T04:41:37.053Z,100230.61
2019-01-26T04:44:05.943Z,100234.88
2019-01-26T04:46:34.861Z,100231.35
2019-01-26T04:49:03.727Z,100225.84
2019-01-26T04:51:32.633Z,100231.41
2019-01-26T04:54:01.503Z,100227.83
2019-01-26T04:56:30.411Z,100230.38
2019-01-26T04:58:59.270Z,100232.55
2019-01-26T05:01:28.184Z,100232.24
2019-01-26T05:03:57.064Z,100222.59
2019-01-26T05:06:25.970Z,100221.92
2019-01-26T05:08:54.834Z,100213.18
2019-01-26T05:11:23.734Z,100214.98
2019-01-26T05:13:52.652Z,100219.16
2019-01-26T05:16:21.530Z,100223.45
2019-01-26T05:18:50.382Z,100210.78
2019-01-26T05:21:19.279Z,100211.88
2019-01-26T05:23:48.164Z,100205.76
2019-01-26T05:26:17.024Z,100213.48
2019-01-26T05:28:45.913Z,100204.59
2019-01-26T05:31:14.807Z,100204.72
2019-01-26T05:33:43.691Z,100206.42
2019-01-26T05:36:12.582Z,100202.70
2019-01-26T05:38:41.489Z,100212.01
2019-01-26T05:41:10.364Z,100206.00
2019-01-26T05:43:39.250Z,100201.22
2019-01-26T05:46:08.150Z,100204.89
2019-01-26T05:48:37.068Z,100208.22
2019-01-26T05:51:06.004Z,100207.23
2019-01-26T05:53:34.864Z,100211.08
2019-01-26T05:56:03.779Z,100204.10
2019-01-26T05:58:32.659Z,100210.73
2019-01-26T06:01:01.573Z,100209.98
2019-01-26T06:03:30.450Z,100209.79
2019-01-26T06:05:59.367Z,100211.83
2019-01-26T06:08:28.260Z,100211.33
2019-01-26T06:10:57.163Z,100199.45
2019-01-26T06:13:26.027Z,100199.14
2019-01-26T06:15:54.929Z,100201.47
2019-01-26T06:18:23.801Z,100206.37
2019-01-26T06:20:52.706Z,100196.53
2019-01-26T06:23:21.590Z,100193.83
2019-01-26T06:25:50.473Z,100185.27
2019-01-26T06:28:19.378Z,100181.97
2019-01-26T06:30:48.263Z,100189.57
2019-01-26T06:33:17.166Z,100187.98
2019-01-26T06:35:46.077Z,100197.73
2019-01-26T06:38:14.937Z,100189.47
2019-01-26T06:40:43.843Z,100185.69
2019-01-26T06:43:12.719Z,100181.38
2019-01-26T06:45:41.634Z,100187.70
2019-01-26T06:48:10.554Z,100183.77
2019-01-26T06:50:39.430Z,100183.35
2019-01-26T06:53:08.329Z,100189.41
2019-01-26T06:55:37.204Z,100192.41
2019-01-26T06:58:06.066Z,100188.48
2019-01-26T07:00:34.958Z,100186.16
2019-01-26T07:03:03.875Z,100187.94
2019-01-26T07:06:04.077Z,100185.41
2019-01-26T07:08:33.000Z,100186.07
2019-01-26T07:11:02.220Z,100190.97
2019-01-26T07:13:31.743Z,100183.45
2019-01-26T07:16:00.676Z,100185.28
2019-01-26T07:18:29.566Z,100183.68
2019-01-26T07:20:58.467Z,100183.40
2019-01-26T07:23:27.373Z,100186.92
2019-01-26T07:25:56.242Z,100188.60
2019-01-26T07:28:25.203Z,100188.77
2019-01-26T07:30:54.060Z,100199.67
2019-01-26T07:33:23.003Z,100192.16
2019-01-26T07:35:51.881Z,100185.52
2019-01-26T07:38:20.775Z,100196.04
2019-01-26T07:40:49.698Z,100191.87
2019-01-26T07:43:18.565Z,100198.41
2019-01-26T07:45:47.437Z,100196.08
2019-01-26T07:48:16.980Z,100195.75
2019-01-26T07:50:45.292Z,100199.01
2019-01-26T07:53:14.153Z,100191.19
2019-01-26T07:55:43.021Z,100190.36
2019-01-26T07:58:11.926Z,100190.95
2019-01-26T08:00:40.828Z,100195.98
2019-01-26T08:03:09.740Z,100192.04
2019-01-26T08:05:38.641Z,100191.19
2019-01-26T08:08:07.513Z,100193.45
2019-01-26T08:10:36.409Z,100192.77
2019-01-26T08:13:05.298Z,100196.83
2019-01-26T08:15:38.455Z,100194.44
2019-01-26T08:18:08.870Z,100182.86
2019-01-26T08:20:37.776Z,100191.61
2019-01-26T08:23:06.660Z,100187.01
2019-01-26T08:25:35.546Z,100185.17
2019-01-26T08:28:04.459Z,100190.20
2019-01-26T08:30:33.345Z,100191.61
2019-01-26T08:33:02.226Z,100188.26
2019-01-26T08:35:31.111Z,100192.89
2019-01-26T08:38:00.001Z,100188.36
2019-01-26T08:40:28.906Z,100184.81
2019-01-26T08:42:57.789Z,100195.03
2019-01-26T08:45:26.662Z,100195.31
2019-01-26T08:47:55.571Z,100199.99
2019-01-26T08:50:25.484Z,100199.31
2019-01-26T08:52:54.386Z,100198.31
2019-01-26T08:55:23.264Z,100198.72
2019-01-26T08:57:52.176Z,100194.18
2019-01-26T09:00:25.847Z,100193.63
2019-01-26T09:03:13.888Z,100206.37
2019-01-26T09:05:54.336Z,100193.06
2019-01-26T09:08:23.224Z,100196.13
2019-01-26T09:10:52.123Z,100194.64
2019-01-26T09:13:21.004Z,100197.34
2019-01-26T09:15:49.913Z,100199.57
2019-01-26T09:18:18.821Z,100197.37
2019-01-26T09:20:47.694Z,100194.77
2019-01-26T09:23:16.575Z,100194.05
2019-01-26T09:25:45.506Z,100194.31
2019-01-26T09:28:14.377Z,100196.87
2019-01-26T09:30:43.265Z,100195.63
2019-01-26T09:33:12.148Z,100190.53
2019-01-26T09:35:41.058Z,100195.30
2019-01-26T09:38:09.943Z,100182.31
2019-01-26T09:40:38.812Z,100194.41
2019-01-26T09:43:08.601Z,100195.50
2019-01-26T09:45:37.470Z,100184.19
2019-01-26T09:48:06.628Z,100188.42
2019-01-26T09:50:35.497Z,100190.14
2019-01-26T09:53:04.398Z,100186.75
2019-01-26T09:55:33.299Z,100184.38
2019-01-26T09:58:02.208Z,100184.41
2019-01-26T10:00:31.071Z,100178.89
2019-01-26T10:02:59.993Z,100172.28
2019-01-26T10:05:28.874Z,100184.16
2019-01-26T10:07:57.752Z,100181.95
2019-01-26T10:10:26.647Z,100179.52
2019-01-26T10:12:55.515Z,100182.22
2019-01-26T10:15:24.468Z,100178.27
2019-01-26T10:17:53.344Z,100175.97
2019-01-26T10:20:24.441Z,100170.64
2019-01-26T10:22:53.330Z,100172.58
2019-01-26T10:25:22.209Z,100174.50
2019-01-26T10:27:51.088Z,100162.87
2019-01-26T10:30:24.493Z,100164.30
2019-01-26T10:32:53.363Z,100162.72
2019-01-26T10:35:22.233Z,100151.80
2019-01-26T10:37:51.161Z,100153.05
2019-01-26T10:40:51.181Z,100150.94
2019-01-26T10:43:20.276Z,100144.98
2019-01-26T10:45:49.163Z,100145.45
2019-01-26T10:48:18.077Z,100133.91
2019-01-26T10:50:46.981Z,100133.33
2019-01-26T10:53:15.901Z,100134.86
2019-01-26T10:55:44.793Z,100128.75
2019-01-26T10:58:13.702Z,100118.36
2019-01-26T11:00:42.579Z,100120.86
2019-01-26T11:03:11.466Z,100126.67
2019-01-26T11:05:40.372Z,100117.96
2019-01-26T11:08:09.307Z,100118.34
2019-01-26T11:10:38.169Z,100110.50
2019-01-26T11:13:07.059Z,100099.04
2019-01-26T11:15:35.946Z,100101.73
2019-01-26T11:18:04.846Z,100091.02
2019-01-26T11:20:33.746Z,100094.13
2019-01-26T11:23:02.629Z,100096.28
2019-01-26T11:25:31.515Z,100095.64
2019-01-26T11:28:00.405Z,100088.53
2019-01-26T11:30:29.835Z,100078.41
2019-01-26T11:32:58.731Z,100085.14
2019-01-26T11:35:27.609Z,100071.66
2019-01-26T11:37:56.512Z,100067.50
2019-01-26T11:40:25.400Z,100075.83
2019-01-26T11:42:54.267Z,100061.36
2019-01-26T11:45:48.512Z,100065.52
2019-01-26T11:48:23.307Z,100053.05
2019-01-26T11:50:56.671Z,100054.61
2019-01-26T11:53:25.571Z,100049.58
2019-01-26T11:56:16.228Z,100039.83
2019-01-26T11:58:45.116Z,100037.00
2019-01-26T12:01:42.262Z,100034.25
2019-01-26T12:04:21.884Z,100029.05
2019-01-26T12:06:58.374Z,100018.62
2019-01-26T12:09:27.262Z,100022.64
2019-01-26T12:11:56.164Z,100015.64
2019-01-26T12:14:25.087Z,100008.49
2019-01-26T12:16:53.948Z,99998.61
2019-01-26T12:19:22.820Z,100001.88
2019-01-26T12:21:51.716Z,99986.61
2019-01-26T12:24:20.609Z,99979.98
2019-01-26T12:26:49.505Z,99981.30
2019-01-26T12:29:18.389Z,99965.09
2019-01-26T12:31:47.297Z,99968.56
2019-01-26T12:34:16.163Z,99962.43
2019-01-26T12:36:45.048Z,99961.75
2019-01-26T12:39:13.946Z,99963.20
2019-01-26T12:41:42.831Z,99961.72
2019-01-26T12:44:11.721Z,99951.13
2019-01-26T12:46:40.595Z,99946.38
2019-01-26T12:49:09.674Z,99942.22
2019-01-26T12:51:39.054Z,99933.81
2019-01-26T12:54:08.246Z,99935.72
2019-01-26T12:56:37.455Z,99929.93
2019-01-26T12:59:06.807Z,99923.58
2019-01-26T13:01:38.538Z,99917.18
2019-01-26T13:04:09.652Z,99920.59
2019-01-26T13:06:41.822Z,99921.16
2019-01-26T13:09:11.464Z,99908.34
2019-01-26T13:11:44.429Z,99902.73
2019-01-26T13:14:13.817Z,99907.38
2019-01-26T13:16:45.128Z,99903.30
2019-01-26T13:19:15.848Z,99892.96
2019-01-26T13:21:44.170Z,99889.70
2019-01-26T13:24:13.673Z,99882.88
2019-01-26T13:26:45.260Z,99883.66
2019-01-26T13:29:15.501Z,99890.91
2019-01-26T13:31:44.822Z,99883.23
2019-01-26T13:34:14.056Z,99875.64
2019-01-26T13:36:43.501Z,99862.53
2019-01-26T13:39:15.319Z,99862.86
2019-01-26T13:41:44.575Z,99855.69
2019-01-26T13:44:16.507Z,99855.52
2019-01-26T13:46:47.283Z,99847.28
2019-01-26T13:49:19.309Z,99844.62
2019-01-26T13:51:51.113Z,99843.23
2019-01-26T13:54:20.318Z,99844.95
2019-01-26T13:56:49.440Z,99836.59
2019-01-26T13:59:21.353Z,99826.09
2019-01-26T14:01:55.259Z,99823.66
2019-01-26T14:04:24.155Z,99824.16
2019-01-26T14:06:53.246Z,99823.67
2019-01-26T14:09:22.616Z,99818.06
2019-01-26T14:11:51.825Z,99819.26
2019-01-26T14:14:23.451Z,99808.17
2019-01-26T14:16:52.487Z,99799.81
2019-01-26T14:19:24.667Z,99797.53
2019-01-26T14:21:56.475Z,99798.22
2019-01-26T14:24:29.396Z,99783.70
2019-01-26T14:26:59.156Z,99788.39
2019-01-26T14:29:34.500Z,99777.44
2019-01-26T14:32:05.924Z,99778.54
2019-01-26T14:34:35.134Z,99778.14
2019-01-26T14:37:06.565Z,99766.31
2019-01-26T14:39:35.660Z,99760.62
2019-01-26T14:42:04.845Z,99772.20
2019-01-26T14:44:36.470Z,99763.80
2019-01-26T14:47:05.833Z,99764.21
2019-01-26T14:49:35.059Z,99751.95
2019-01-26T14:52:06.397Z,99754.44
2019-01-26T14:54:37.544Z,99744.38
2019-01-26T14:57:09.653Z,99740.97
2019-01-26T14:59:38.788Z,99740.77
2019-01-26T15:02:08.495Z,99728.34
2019-01-26T15:04:37.597Z,99732.64
2019-01-26T15:07:11.314Z,99728.59
2019-01-26T15:09:42.949Z,99725.43
2019-01-26T15:12:14.843Z,99712.27
2019-01-26T15:14:44.125Z,99704.23
2019-01-26T15:17:13.472Z,99703.77
2019-01-26T15:19:44.507Z,99701.33
2019-01-26T15:22:15.918Z,99693.23
2019-01-26T15:24:47.357Z,99687.63
2019-01-26T15:27:16.565Z,99688.43
2019-01-26T15:29:45.811Z,99684.53
2019-01-26T15:32:16.947Z,99679.55
2019-01-26T15:34:46.150Z,99681.86
2019-01-26T15:37:15.388Z,99673.32
2019-01-26T15:39:49.730Z,99673.90
2019-01-26T15:42:18.846Z,99668.45
2019-01-26T15:44:50.622Z,99662.28
2019-01-26T15:47:25.981Z,99662.28
2019-01-26T15:49:55.516Z,99646.04
2019-01-26T15:52:29.662Z,99654.39
2019-01-26T15:54:58.959Z,99641.06
2019-01-26T15:57:28.143Z,99637.95
2019-01-26T15:59:57.313Z,99643.11
2019-01-26T16:02:29.315Z,99636.39
2019-01-26T16:04:58.418Z,99637.39
2019-01-26T16:07:27.384Z,99625.75
2019-01-26T16:09:56.596Z,99613.88
2019-01-26T16:12:28.219Z,99611.36
2019-01-26T16:15:00.626Z,99611.48
2019-01-26T16:17:29.945Z,99596.86
2019-01-26T16:19:59.083Z,99609.84
2019-01-26T16:22:30.991Z,99584.81
2019-01-26T16:25:00.253Z,99587.98
2019-01-26T16:27:29.230Z,99589.81
2019-01-26T16:29:58.499Z,99590.24
2019-01-26T16:32:30.731Z,99572.81
2019-01-26T16:35:02.602Z,99574.15
2019-01-26T16:37:31.989Z,99570.61
2019-01-26T16:40:00.960Z,99560.61
2019-01-26T16:42:30.337Z,99557.05
2019-01-26T16:45:02.626Z,99557.56
2019-01-26T16:47:31.762Z,99557.72
2019-01-26T16:50:03.796Z,99549.98
2019-01-26T16:52:32.864Z,99539.61
2019-01-26T16:55:02.155Z,99545.58
2019-01-26T16:57:31.180Z,99540.81
2019-01-26T17:00:00.557Z,99528.66
2019-01-26T17:02:29.776Z,99533.20
2019-01-26T17:04:58.839Z,99528.83
2019-01-26T17:07:27.931Z,99527.98
2019-01-26T17:09:57.134Z,99526.14
2019-01-26T17:12:26.462Z,99519.73
2019-01-26T17:14:55.271Z,99503.77
2019-01-26T17:17:24.349Z,99510.53
2019-01-26T17:19:58.319Z,99503.02
2019-01-26T17:22:29.966Z,99497.83
2019-01-26T17:24:58.946Z,99491.02
2019-01-26T17:27:28.085Z,99477.06
2019-01-26T17:29:57.229Z,99482.78
2019-01-26T17:32:29.492Z,99475.40
2019-01-26T17:34:59.463Z,99473.80
2019-01-26T17:37:28.599Z,99467.11
2019-01-26T17:40:01.488Z,99459.87
2019-01-26T17:42:31.979Z,99462.09
2019-01-26T17:45:03.708Z,99451.19
2019-01-26T17:47:33.154Z,99452.59
2019-01-26T17:50:08.752Z,99435.77
2019-01-26T17:52:40.498Z,99430.45
2019-01-26T17:55:08.335Z,99413.09
2019-01-26T17:57:37.900Z,99415.14
2019-01-26T18:00:14.962Z,99411.39
2019-01-26T18:02:43.297Z,99404.81
2019-01-26T18:05:12.333Z,99402.31
2019-01-26T18:07:41.491Z,99379.92
2019-01-26T18:10:13.435Z,99376.86
2019-01-26T18:12:42.501Z,99372.80
2019-01-26T18:15:12.842Z,99376.78
2019-01-26T18:17:41.986Z,99366.36
2019-01-26T18:20:19.321Z,99366.86
2019-01-26T18:22:48.534Z,99361.48
2019-01-26T18:25:24.273Z,99355.45
2019-01-26T18:27:58.369Z,99348.20
2019-01-26T18:30:29.657Z,99332.03
2019-01-26T18:32:58.823Z,99326.65
2019-01-26T18:35:27.932Z,99316.13
2019-01-26T18:37:57.076Z,99321.26
2019-01-26T18:40:26.559Z,99317.56
2019-01-26T18:42:58.023Z,99317.73
2019-01-26T18:45:29.269Z,99316.68
2019-01-26T18:47:59.588Z,99306.79
2019-01-26T18:50:30.833Z,99296.01
2019-01-26T18:53:00.184Z,99296.42
2019-01-26T18:55:29.203Z,99287.84
2019-01-26T18:58:00.272Z,99289.92
2019-01-26T19:00:30.275Z,99285.84
2019-01-26T19:03:05.831Z,99280.54
2019-01-26T19:05:38.257Z,99282.63
2019-01-26T19:08:07.511Z,99266.67
2019-01-26T19:10:36.672Z,99270.10
2019-01-26T19:13:05.698Z,99262.09
2019-01-26T19:15:36.767Z,99250.78
2019-01-26T19:18:09.140Z,99249.88
2019-01-26T19:20:40.172Z,99239.86
2019-01-26T19:23:07.663Z,99239.83
2019-01-26T19:25:42.838Z,99234.67
2019-01-26T19:28:09.098Z,99235.33
2019-01-26T19:30:40.386Z,99230.17
2019-01-26T19:33:09.330Z,99232.83
2019-01-26T19:35:40.766Z,99212.84
2019-01-26T19:38:16.508Z,99215.06
2019-01-26T19:40:49.089Z,99198.09
2019-01-26T19:43:18.675Z,99199.23
2019-01-26T19:45:50.589Z,99194.44
2019-01-26T19:48:21.410Z,99179.73
2019-01-26T19:50:54.626Z,99171.11
2019-01-26T19:53:28.225Z,99174.22
2019-01-26T19:55:59.326Z,99171.53
2019-01-26T19:58:29.664Z,99165.10
2019-01-26T20:01:00.756Z,99158.57
2019-01-26T20:03:30.210Z,99152.56
2019-01-26T20:06:00.272Z,99144.48
2019-01-26T20:08:31.440Z,99144.41
2019-01-26T20:11:02.453Z,99140.56
2019-01-26T20:13:35.730Z,99138.05
2019-01-26T20:16:05.931Z,99131.19
2019-01-26T20:18:38.786Z,99137.93
2019-01-26T20:21:09.795Z,99116.00
2019-01-26T20:23:44.429Z,99123.42
2019-01-26T20:26:17.823Z,99111.80
2019-01-26T20:28:47.003Z,99101.39
2019-01-26T20:31:18.519Z,99098.36
2019-01-26T20:33:47.689Z,99096.30
2019-01-26T20:36:17.046Z,99091.63
2019-01-26T20:38:49.318Z,99078.48
2019-01-26T20:41:18.634Z,99076.73
2019-01-26T20:43:50.352Z,99082.69
2019-01-26T20:46:20.495Z,99061.80
2019-01-26T20:48:51.384Z,99047.05
2019-01-26T20:51:24.812Z,99053.19
2019-01-26T20:53:49.906Z,99042.45
2019-01-26T20:56:18.974Z,99043.96
2019-01-26T20:58:51.015Z,99033.18
2019-01-26T21:01:23.055Z,99026.95
2019-01-26T21:03:52.066Z,99018.84
2019-01-26T21:06:21.151Z,99010.47
2019-01-26T21:08:50.060Z,99007.00
2019-01-26T21:11:18.939Z,98997.75
2019-01-26T21:13:47.845Z,98986.84
2019-01-26T21:16:16.721Z,98994.62
2019-01-26T21:18:45.588Z,98980.77
2019-01-26T21:21:14.502Z,98998.44
2019-01-26T21:23:43.375Z,98966.97
2019-01-26T21:26:12.290Z,98963.42
2019-01-26T21:28:41.179Z,98958.53
2019-01-26T21:31:10.075Z,98959.03
2019-01-26T21:33:38.956Z,98951.50
2019-01-26T21:36:07.822Z,98947.58
2019-01-26T21:38:36.691Z,98949.77
2019-01-26T21:41:05.571Z,98943.42
2019-01-26T21:43:34.427Z,98941.38
2019-01-26T21:46:03.321Z,98928.25
2019-01-26T21:48:32.190Z,98931.60
2019-01-26T21:51:01.101Z,98914.61
2019-01-26T21:53:30.029Z,98914.92
2019-01-26T21:55:58.902Z,98910.08
2019-01-26T21:58:27.802Z,98903.98
2019-01-26T22:00:56.683Z,98898.59
2019-01-26T22:03:25.576Z,98894.04
2019-01-26T22:05:54.442Z,98890.36
2019-01-26T22:08:23.344Z,98885.95
2019-01-26T22:10:52.212Z,98891.17
2019-01-26T22:13:21.131Z,98876.86
2019-01-26T22:15:50.018Z,98881.74
2019-01-26T22:18:18.913Z,98863.22
2019-01-26T22:20:47.811Z,98862.38
2019-01-26T22:23:16.723Z,98851.64
2019-01-26T22:25:45.593Z,98836.80
2019-01-26T22:28:14.457Z,98841.01
2019-01-26T22:30:43.346Z,98833.59
2019-01-26T22:33:12.235Z,98838.16
2019-01-26T22:35:41.110Z,98824.84
2019-01-26T22:38:09.996Z,98817.29
2019-01-26T22:40:38.871Z,98802.30
2019-01-26T22:43:07.776Z,98813.90
2019-01-26T22:45:36.656Z,98799.77
2019-01-26T22:48:05.564Z,98811.05
2019-01-26T22:50:34.446Z,98799.94
2019-01-26T22:53:03.357Z,98782.77
2019-01-26T22:55:32.248Z,98785.64
2019-01-26T22:58:01.121Z,98779.08
2019-01-26T23:00:56.698Z,98775.38
2019-01-26T23:03:33.693Z,98774.37
2019-01-26T23:06:42.642Z,98760.20
2019-01-26T23:09:19.917Z,98758.70
2019-01-26T23:12:19.564Z,98758.86
2019-01-26T23:15:19.575Z,98736.14
2019-01-26T23:18:33.108Z,98739.84
2019-01-26T23:21:29.739Z,98727.08
2019-01-26T23:24:35.376Z,98729.25
2019-01-26T23:27:39.227Z,98719.66
2019-01-26T23:30:30.706Z,98720.83
2019-01-26T23:32:59.628Z,98703.02
2019-01-26T23:35:28.498Z,98707.70
2019-01-26T23:37:57.407Z,98707.05
2019-01-26T23:40:26.273Z,98685.52
2019-01-26T23:42:55.163Z,98683.64
2019-01-26T23:45:24.026Z,98678.28
2019-01-26T23:47:52.897Z,98664.41
2019-01-26T23:50:21.777Z,98677.25
2019-01-26T23:52:50.667Z,98668.35
2019-01-26T23:55:19.569Z,98658.59
2019-01-26T23:57:48.454Z,98650.84
